CheckWX is a tool to help pilots better visualize weather data.  It is not intended as a substitute for an official pre-flight weather briefing.

13:20:14 UTC

EFKI METAR
Kajaani Airport
Kajaani, Finland
Current

30 mins ago

EFKI 271250Z AUTO VRB01KT CAVOK M04/M11 Q1002
Observed
Feb-27 @ 12:50 UTC
Wind
  • Variable at 1 KTS
Visibility
10,000+ meters
Flight Rules
VFR
Cloud Levels
  • Clear skies
Temperature
-4°C / 25°F
Dewpoint
-11°C / 12°F
Humidity
59%
Altimeter
29.59" Hg
Pressure
1001.92 hPa
Previous

60 mins ago

EFKI 271220Z 31003KT CAVOK M05/M11 Q1002
Observed
Feb-27 @ 12:20 UTC
Wind
  • 310° at 3 KTS
Visibility
10,000+ meters
Flight Rules
VFR
Cloud Levels
  • Clear skies
Temperature
-5°C / 23°F
Dewpoint
-11°C / 12°F
Humidity
63%
Altimeter
29.59" Hg
Pressure
1001.92 hPa
Previous

2 hours ago

EFKI 271150Z 31003KT CAVOK M06/M13 Q1002
Observed
Feb-27 @ 11:50 UTC
Wind
  • 310° at 3 KTS
Visibility
10,000+ meters
Flight Rules
VFR
Cloud Levels
  • Clear skies
Temperature
-6°C / 21°F
Dewpoint
-13°C / 9°F
Humidity
58%
Altimeter
29.59" Hg
Pressure
1001.92 hPa